Hlavní strana
METAR-TAF:

METAR-TAF

Letiště :

Bellefontaine, Ohio, Spojené státy americké

zeměpisná šířka: 40-22-20N, zeměpisná délka: 083-49-08W, výška: 342 m

Aktuální stav počasí

Zpráva byla vytvořena před 31 minutami, v 00:55 UTC
Jihojihovýchodní vítr 8 kt
Teplota -2°C
Vlhkost vzduchu 100%
Tlak 1027 hPa
Viditelnost: 16.1 km
Jasno

METAR: KEDJ 080055Z AUTO 15008KT 10SM CLR M02/M02 A3033 RMK AO1

Čas: 20:26 (01:26 UTC)


TAF: chybějící

Stav a předpovědi počasí z více než 4 000 letišť (zprávy METAR a TAF).

Červené a žluté tečky na mapě představují dostupné meteorologické stanice.

Když kurzor umístíte na tečku, zobrazí se název stanice.

Pak kliknutím zobrazíte stav a předpověď počasí.

Chcete-li změnit mapu, kliknutím na zelené tlačítko se znaménkem +mapu přiblížíte, kliknutím na zelené tlačítko se znaménkem – mapu oddálíte a kliknutím na zelené šipky přejdete na sousední mapy.


METAR-TAF: